Time;durP1;ratioP1;P1;durP2;ratioP2;P2;SDS_P1;SDS_P2;PMS_P1;PMS_P2;Temp;Humidity;BMP_temperature;BMP_pressure;BME280_temperature;BME280_humidity;BME280_pressure;Samples;Min_cycle;Max_cycle;Signal;HPM_P1;HPM_P2
2022/06/15 00:02:15;;;;;;;11.20;5.50;;;13.40;99.90;;;;;;5037264;28;20053;-72
2022/06/15 00:04:43;;;;;;;11.18;5.65;;;13.40;99.90;;;;;;5055577;28;20438;-71
2022/06/15 00:07:10;;;;;;;13.02;5.93;;;13.30;99.90;;;;;;5074922;28;20057;-71
2022/06/15 00:09:37;;;;;;;9.82;6.32;;;13.30;99.90;;;;;;5065027;28;20041;-71
2022/06/15 00:12:06;;;;;;;8.25;5.95;;;13.30;99.90;;;;;;5055414;28;20438;-72
2022/06/15 00:14:33;;;;;;;11.15;5.53;;;13.20;99.90;;;;;;5054969;28;20079;-71
2022/06/15 00:16:59;;;;;;;10.70;6.35;;;13.20;99.90;;;;;;5054165;28;20061;-71
2022/06/15 00:19:26;;;;;;;10.45;6.25;;;13.10;99.90;;;;;;5054568;28;20405;-72
2022/06/15 00:21:55;;;;;;;13.88;5.70;;;13.10;99.90;;;;;;5055089;28;20095;-74
2022/06/15 00:24:22;;;;;;;10.18;5.95;;;13.10;99.90;;;;;;5054730;28;20053;-70
2022/06/15 00:26:48;;;;;;;11.45;5.65;;;13.10;99.90;;;;;;5041420;28;20117;-71
2022/06/15 00:29:15;;;;;;;9.48;6.10;;;13.00;99.90;;;;;;5056931;28;20400;-71
2022/06/15 00:31:42;;;;;;;10.38;5.88;;;13.00;99.90;;;;;;5058312;28;20048;-70
2022/06/15 00:34:10;;;;;;;9.43;6.18;;;12.90;99.90;;;;;;5057204;28;20119;-70
2022/06/15 00:36:36;;;;;;;8.25;5.85;;;12.90;99.90;;;;;;5054493;28;20061;-70
2022/06/15 00:39:05;;;;;;;11.30;6.25;;;12.80;99.90;;;;;;5048821;28;20098;-70
2022/06/15 00:41:35;;;;;;;9.80;5.50;;;12.80;99.90;;;;;;5056790;28;20040;-70
2022/06/15 00:44:24;;;;;;;8.98;5.10;;;12.80;99.90;;;;;;5056797;28;20060;-72
2022/06/15 00:46:56;;;;;;;12.23;5.75;;;12.70;99.90;;;;;;5056132;28;20106;-71
2022/06/15 00:49:29;;;;;;;9.93;5.75;;;12.70;99.90;;;;;;5056555;28;20053;-70
2022/06/15 00:52:01;;;;;;;10.25;5.00;;;12.60;99.90;;;;;;5074318;28;20052;-71
2022/06/15 00:54:28;;;;;;;13.48;5.25;;;12.60;99.90;;;;;;5038512;28;20102;-71
2022/06/15 00:56:56;;;;;;;11.05;5.38;;;12.50;99.90;;;;;;5054172;28;20053;-71
2022/06/15 00:59:25;;;;;;;10.18;4.88;;;12.50;99.90;;;;;;5053913;28;20091;-72
2022/06/15 01:01:53;;;;;;;10.98;5.30;;;12.50;99.90;;;;;;5054615;28;20045;-71
2022/06/15 01:04:22;;;;;;;9.82;4.78;;;12.50;99.90;;;;;;5036371;28;20122;-70
2022/06/15 01:06:57;;;;;;;6.80;4.63;;;13.00;99.90;;;;;;5054141;28;20053;-72
2022/06/15 01:09:27;;;;;;;10.63;5.65;;;12.50;99.90;;;;;;5051778;28;20070;-71
2022/06/15 01:12:07;;;;;;;10.02;5.30;;;12.50;99.90;;;;;;5056508;28;20067;-71
2022/06/15 01:14:58;;;;;;;8.80;4.90;;;12.50;99.90;;;;;;5055759;28;20118;-72
2022/06/15 01:17:37;;;;;;;8.80;4.50;;;12.40;99.90;;;;;;5073448;28;20052;-71
2022/06/15 01:20:16;;;;;;;7.82;4.50;;;12.40;99.90;;;;;;5055414;28;20048;-72
2022/06/15 01:23:26;;;;;;;5.63;4.22;;;12.40;99.90;;;;;;5073771;28;20059;-72
2022/06/15 01:26:11;;;;;;;15.20;4.72;;;12.30;99.90;;;;;;5032779;28;20111;-72
2022/06/15 01:28:43;;;;;;;8.40;4.38;;;12.30;99.90;;;;;;5053220;28;20049;-72
2022/06/15 01:31:20;;;;;;;8.98;4.80;;;12.30;99.90;;;;;;5036149;28;20087;-72
2022/06/15 01:33:58;;;;;;;7.93;4.10;;;12.20;99.90;;;;;;5053666;28;20099;-70
2022/06/15 01:36:34;;;;;;;9.88;4.40;;;12.20;99.90;;;;;;5035865;28;20053;-71
2022/06/15 01:39:07;;;;;;;9.43;5.00;;;12.20;99.90;;;;;;5046916;28;20056;-72
2022/06/15 01:41:36;;;;;;;8.10;4.47;;;12.20;99.90;;;;;;5054941;28;20076;-71
2022/06/15 01:44:09;;;;;;;8.38;4.40;;;12.20;99.90;;;;;;5073767;28;20045;-71
2022/06/15 01:46:40;;;;;;;6.00;4.28;;;12.10;99.90;;;;;;5074000;28;20500;-70
2022/06/15 01:49:10;;;;;;;8.68;4.20;;;12.10;99.90;;;;;;5056301;28;20106;-72
2022/06/15 01:51:42;;;;;;;10.15;4.60;;;12.00;99.90;;;;;;5056059;28;20102;-71
2022/06/15 01:54:13;;;;;;;8.80;4.55;;;12.00;99.90;;;;;;5058135;28;20110;-71
2022/06/15 01:56:44;;;;;;;15.13;4.82;;;11.90;99.90;;;;;;5053126;28;20063;-71
2022/06/15 01:59:16;;;;;;;6.95;4.22;;;11.90;99.90;;;;;;5053772;28;20146;-71
2022/06/15 02:01:51;;;;;;;6.90;4.80;;;11.90;99.90;;;;;;5053003;28;20041;-71
2022/06/15 02:04:29;;;;;;;8.88;4.35;;;11.80;99.90;;;;;;5072501;28;20334;-71
2022/06/15 02:07:05;;;;;;;6.80;4.40;;;11.80;99.90;;;;;;5055662;28;20083;-71
2022/06/15 02:09:40;;;;;;;8.80;4.07;;;11.80;99.90;;;;;;5043434;28;20059;-70
2022/06/15 02:12:09;;;;;;;7.50;4.10;;;11.70;99.90;;;;;;5035698;28;20099;-71
2022/06/15 02:14:42;;;;;;;11.02;4.38;;;11.70;99.90;;;;;;5052872;28;20533;-71
2022/06/15 02:17:16;;;;;;;6.70;4.43;;;11.70;99.90;;;;;;5034607;28;20048;-71
2022/06/15 02:19:47;;;;;;;9.32;4.68;;;11.70;99.90;;;;;;5035427;28;20106;-71
2022/06/15 02:22:22;;;;;;;7.90;4.55;;;11.70;99.90;;;;;;5035156;28;20094;-71
2022/06/15 02:24:53;;;;;;;8.38;4.47;;;11.70;99.90;;;;;;5052307;28;20390;-71
2022/06/15 02:27:22;;;;;;;8.55;4.20;;;11.70;99.90;;;;;;5035101;28;20091;-70
2022/06/15 02:29:54;;;;;;;9.10;4.63;;;11.60;99.90;;;;;;5052747;28;20049;-72
2022/06/15 02:32:25;;;;;;;6.40;4.28;;;11.50;99.90;;;;;;5034466;28;20103;-71
2022/06/15 02:34:52;;;;;;;8.50;4.15;;;11.50;99.90;;;;;;5034952;28;20106;-71
2022/06/15 02:37:19;;;;;;;7.28;4.60;;;11.50;99.90;;;;;;5052502;28;20444;-71
2022/06/15 02:39:46;;;;;;;8.10;4.63;;;11.50;99.90;;;;;;5052722;28;20048;-71
2022/06/15 02:42:28;;;;;;;6.43;4.18;;;11.40;99.90;;;;;;5052513;28;20053;-71
2022/06/15 02:44:57;;;;;;;8.85;4.70;;;11.50;99.90;;;;;;5052274;28;20470;-71
2022/06/15 02:47:29;;;;;;;7.30;4.25;;;11.40;99.90;;;;;;5034513;28;20094;-71
2022/06/15 02:49:57;;;;;;;7.30;4.18;;;11.40;99.90;;;;;;5052428;28;20048;-72
2022/06/15 02:52:29;;;;;;;7.47;4.72;;;11.40;99.90;;;;;;5034138;28;20045;-70
2022/06/15 02:54:56;;;;;;;10.75;4.68;;;11.40;99.90;;;;;;5052678;28;20060;-71
2022/06/15 02:57:24;;;;;;;7.07;4.47;;;11.40;99.90;;;;;;5034477;28;20091;-71
2022/06/15 02:59:53;;;;;;;7.55;5.03;;;11.40;99.90;;;;;;5034207;28;20061;-70
2022/06/15 03:02:20;;;;;;;11.70;4.97;;;11.40;99.90;;;;;;5041733;28;20076;-71
2022/06/15 03:04:50;;;;;;;9.50;5.00;;;11.40;99.90;;;;;;5054263;28;20052;-71
2022/06/15 03:07:20;;;;;;;7.07;4.87;;;11.50;99.90;;;;;;5052529;28;20055;-72
2022/06/15 03:09:47;;;;;;;11.93;4.82;;;11.60;99.90;;;;;;5052240;28;20056;-72
2022/06/15 03:12:13;;;;;;;9.15;5.20;;;11.60;99.90;;;;;;5052686;28;20479;-71
2022/06/15 03:14:40;;;;;;;7.57;4.43;;;11.70;99.90;;;;;;5051898;28;20052;-71
2022/06/15 03:17:07;;;;;;;9.60;4.50;;;11.80;99.90;;;;;;5034293;28;20057;-71
2022/06/15 03:19:34;;;;;;;8.32;4.65;;;11.80;99.90;;;;;;5033805;28;20087;-70
2022/06/15 03:22:02;;;;;;;9.63;4.60;;;11.90;99.90;;;;;;5052853;28;20049;-71
2022/06/15 03:24:29;;;;;;;7.10;4.97;;;12.00;99.90;;;;;;5072143;28;20094;-70
2022/06/15 03:26:56;;;;;;;10.18;5.03;;;12.00;99.90;;;;;;5060831;28;20106;-71
2022/06/15 03:29:23;;;;;;;10.90;5.13;;;12.10;99.90;;;;;;5052202;28;20052;-72
2022/06/15 03:31:50;;;;;;;14.32;5.40;;;12.20;99.90;;;;;;5051947;28;20132;-72
2022/06/15 03:34:17;;;;;;;9.13;4.82;;;12.40;99.90;;;;;;5070399;28;20162;-71
2022/06/15 03:36:44;;;;;;;7.20;4.63;;;12.50;99.90;;;;;;5069684;28;20049;-71
2022/06/15 03:39:12;;;;;;;7.40;4.78;;;12.70;99.90;;;;;;5070054;28;20608;-71
2022/06/15 03:41:39;;;;;;;8.80;5.10;;;12.80;99.90;;;;;;5052211;28;20044;-71
2022/06/15 03:44:06;;;;;;;10.00;5.25;;;12.90;99.90;;;;;;5071334;28;20047;-71
2022/06/15 03:46:33;;;;;;;8.98;4.95;;;12.90;99.90;;;;;;5073564;28;20122;-70
2022/06/15 03:49:00;;;;;;;13.48;4.97;;;13.00;99.90;;;;;;5073595;28;20454;-71
2022/06/15 03:51:27;;;;;;;12.48;5.30;;;13.00;99.90;;;;;;5072856;28;20044;-71
2022/06/15 03:53:54;;;;;;;8.13;4.50;;;13.00;99.90;;;;;;5071623;28;20109;-71
2022/06/15 03:56:22;;;;;;;15.82;5.38;;;13.10;99.90;;;;;;5073092;28;20302;-71
2022/06/15 03:58:49;;;;;;;11.70;6.03;;;13.20;99.90;;;;;;5073313;28;20493;-71
2022/06/15 04:01:16;;;;;;;17.08;4.85;;;13.20;99.90;;;;;;5053237;28;20049;-71
2022/06/15 04:03:43;;;;;;;9.80;4.75;;;13.20;99.90;;;;;;5072340;28;20048;-71
2022/06/15 04:06:09;;;;;;;12.18;5.38;;;13.30;99.90;;;;;;5054549;28;20041;-71
2022/06/15 04:08:37;;;;;;;9.05;5.10;;;14.00;99.90;;;;;;5052131;28;20512;-71
2022/06/15 04:11:06;;;;;;;6.57;5.03;;;13.40;99.90;;;;;;5073318;28;20053;-71
2022/06/15 04:13:34;;;;;;;10.75;5.38;;;13.50;99.90;;;;;;5055122;28;20049;-72
2022/06/15 04:16:02;;;;;;;10.13;4.65;;;13.60;99.90;;;;;;5072159;28;20135;-72
2022/06/15 04:18:29;;;;;;;10.57;4.78;;;13.60;99.90;;;;;;5052657;28;20488;-71
2022/06/15 04:20:56;;;;;;;10.63;5.30;;;13.70;99.90;;;;;;5054824;28;20060;-70
2022/06/15 04:23:23;;;;;;;11.93;6.03;;;13.80;99.90;;;;;;5053649;28;20448;-72
2022/06/15 04:25:52;;;;;;;12.32;5.10;;;13.90;99.90;;;;;;5056053;28;20506;-71
2022/06/15 04:28:21;;;;;;;6.15;4.43;;;13.90;99.90;;;;;;5055159;28;20076;-71
2022/06/15 04:30:50;;;;;;;8.40;5.05;;;13.90;99.90;;;;;;5054917;28;20107;-72
2022/06/15 04:33:17;;;;;;;7.38;4.47;;;14.00;99.90;;;;;;5073504;28;20448;-71
2022/06/15 04:35:45;;;;;;;12.18;4.72;;;14.00;99.90;;;;;;5072434;28;20101;-72
2022/06/15 04:38:12;;;;;;;10.20;4.53;;;14.10;99.90;;;;;;5065257;28;20053;-71
2022/06/15 04:40:39;;;;;;;9.50;4.63;;;14.10;99.90;;;;;;5073749;28;20546;-72
2022/06/15 04:43:08;;;;;;;5.63;4.20;;;14.20;99.90;;;;;;5055390;28;20069;-72
2022/06/15 04:45:36;;;;;;;8.52;4.53;;;14.20;99.90;;;;;;5054147;28;20084;-72
2022/06/15 04:48:04;;;;;;;7.78;4.53;;;14.20;99.90;;;;;;5072836;28;20052;-72
2022/06/15 04:50:32;;;;;;;7.47;4.93;;;14.30;99.90;;;;;;5055349;28;20101;-70
2022/06/15 04:52:59;;;;;;;8.68;4.88;;;14.30;99.90;;;;;;5067937;28;20132;-73
2022/06/15 04:55:26;;;;;;;6.22;4.45;;;14.40;99.90;;;;;;5050061;28;20118;-73
2022/06/15 04:57:54;;;;;;;7.80;4.50;;;14.40;99.90;;;;;;5080698;28;20057;-72
2022/06/15 05:00:23;;;;;;;6.07;4.15;;;14.50;99.90;;;;;;5053571;28;20053;-71
2022/06/15 05:02:51;;;;;;;8.27;4.47;;;14.50;99.90;;;;;;5054243;28;20051;-71
2022/06/15 05:05:19;;;;;;;9.27;5.13;;;14.60;99.90;;;;;;5072861;28;20098;-72
2022/06/15 05:07:46;;;;;;;13.05;5.28;;;14.60;99.90;;;;;;5037020;28;20489;-71
2022/06/15 05:10:18;;;;;;;9.02;4.65;;;14.70;99.90;;;;;;5037488;28;20226;-72
2022/06/15 05:12:45;;;;;;;8.55;4.80;;;14.70;99.90;;;;;;5059155;28;20041;-72
2022/06/15 05:15:14;;;;;;;13.23;4.90;;;14.80;99.90;;;;;;5039725;28;20048;-73
2022/06/15 05:17:41;;;;;;;11.32;4.43;;;15.10;99.90;;;;;;5071306;28;20381;-71
2022/06/15 05:20:09;;;;;;;16.75;5.70;;;15.10;99.90;;;;;;5072034;28;20052;-71
2022/06/15 05:22:38;;;;;;;12.65;5.40;;;15.20;99.90;;;;;;5077064;28;20140;-70
2022/06/15 05:25:06;;;;;;;9.10;4.20;;;15.50;99.90;;;;;;5072518;28;20388;-71
2022/06/15 05:27:33;;;;;;;9.65;4.45;;;15.70;99.90;;;;;;5054089;28;20534;-72
2022/06/15 05:30:00;;;;;;;10.40;5.00;;;15.70;99.90;;;;;;5054762;28;20067;-71
2022/06/15 05:32:27;;;;;;;9.43;5.28;;;15.80;99.90;;;;;;5072137;28;20044;-71
2022/06/15 05:34:55;;;;;;;8.68;4.38;;;15.90;99.90;;;;;;5071245;28;20508;-70
2022/06/15 05:37:23;;;;;;;14.43;4.80;;;15.90;99.90;;;;;;5053819;28;20049;-71
2022/06/15 05:39:51;;;;;;;11.23;4.78;;;16.00;99.90;;;;;;5050673;28;20501;-71
2022/06/15 05:42:18;;;;;;;6.40;4.05;;;16.10;99.90;;;;;;5067129;28;20820;-70
2022/06/15 05:44:49;;;;;;;7.22;4.65;;;16.30;99.90;;;;;;5071882;28;20099;-71
2022/06/15 05:47:16;;;;;;;11.40;5.13;;;16.50;99.90;;;;;;5072419;28;20048;-72
2022/06/15 05:49:43;;;;;;;8.60;4.70;;;16.70;99.90;;;;;;5068837;28;20048;-70
2022/06/15 05:52:10;;;;;;;7.75;4.22;;;17.00;99.90;;;;;;5049674;28;20040;-71
2022/06/15 05:54:38;;;;;;;9.13;4.32;;;17.30;99.90;;;;;;5070162;28;20053;-71
2022/06/15 05:57:15;;;;;;;9.98;4.25;;;17.40;99.90;;;;;;5053952;28;20519;-71
2022/06/15 05:59:42;;;;;;;7.20;4.15;;;17.60;99.90;;;;;;5072096;28;20147;-72
2022/06/15 06:02:10;;;;;;;8.02;3.80;;;17.60;99.90;;;;;;5070375;28;20446;-72
2022/06/15 06:04:37;;;;;;;10.05;4.63;;;17.70;99.90;;;;;;5034347;28;20049;-72
2022/06/15 06:07:04;;;;;;;11.48;5.05;;;17.90;99.90;;;;;;5068735;28;20048;-70
2022/06/15 06:09:31;;;;;;;9.05;4.72;;;18.00;99.90;;;;;;5051836;28;20060;-72
2022/06/15 06:11:59;;;;;;;7.93;4.43;;;18.20;99.90;;;;;;5071841;28;20396;-71
2022/06/15 06:14:27;;;;;;;6.88;4.13;;;18.40;99.90;;;;;;5067186;28;20443;-70
2022/06/15 06:16:54;;;;;;;6.43;4.10;;;18.60;99.90;;;;;;5051253;28;20061;-73
2022/06/15 06:19:20;;;;;;;8.13;4.00;;;18.80;99.90;;;;;;5055453;28;20492;-72
2022/06/15 06:21:47;;;;;;;8.60;3.83;;;19.00;99.90;;;;;;5053416;28;20056;-72
2022/06/15 06:24:14;;;;;;;7.85;3.90;;;19.20;99.90;;;;;;5052932;28;20093;-73
2022/06/15 06:26:42;;;;;;;5.45;3.83;;;19.50;99.90;;;;;;5070970;28;20114;-71
2022/06/15 06:29:13;;;;;;;10.50;4.80;;;19.60;99.90;;;;;;5072490;28;20471;-71
2022/06/15 06:31:42;;;;;;;9.80;3.67;;;19.80;99.90;;;;;;5040245;28;20106;-71
2022/06/15 06:34:10;;;;;;;6.55;3.33;;;19.80;99.90;;;;;;5042846;28;20056;-72
2022/06/15 06:36:40;;;;;;;5.03;3.33;;;19.90;99.90;;;;;;5039922;28;20135;-72
2022/06/15 06:39:13;;;;;;;4.68;2.83;;;20.00;99.90;;;;;;5045163;28;20056;-72
2022/06/15 06:41:41;;;;;;;8.25;4.38;;;20.20;99.90;;;;;;5039554;28;20140;-72
2022/06/15 06:44:08;;;;;;;10.30;3.33;;;20.40;99.90;;;;;;5075070;28;20110;-71
2022/06/15 06:46:36;;;;;;;8.32;3.10;;;20.60;99.90;;;;;;5076962;28;20059;-72
2022/06/15 06:49:06;;;;;;;8.73;2.95;;;20.90;99.90;;;;;;5054982;28;20057;-72
2022/06/15 06:51:35;;;;;;;17.58;3.95;;;21.10;99.90;;;;;;5070595;28;20099;-73
2022/06/15 06:54:02;;;;;;;23.15;4.95;;;21.10;99.90;;;;;;5071448;28;20045;-73
2022/06/15 06:56:29;;;;;;;17.75;4.65;;;21.20;99.90;;;;;;5052471;28;20056;-71
2022/06/15 06:58:55;;;;;;;14.13;3.47;;;21.50;99.90;;;;;;5071713;28;20110;-72
2022/06/15 07:01:22;;;;;;;17.05;3.45;;;21.50;99.90;;;;;;5070646;28;20056;-72
2022/06/15 07:03:49;;;;;;;567.28;81.97;;;21.70;99.90;;;;;;5049576;28;20551;-72
2022/06/15 07:06:17;;;;;;;10.88;2.80;;;21.60;99.90;;;;;;5052399;28;20049;-72
2022/06/15 07:08:44;;;;;;;14.23;3.95;;;21.70;99.90;;;;;;5049515;28;20052;-74
2022/06/15 07:11:13;;;;;;;23.40;4.25;;;21.60;99.90;;;;;;5050671;28;20206;-73
2022/06/15 07:13:41;;;;;;;11.45;2.95;;;21.80;99.90;;;;;;5064614;28;20629;-72
2022/06/15 07:16:09;;;;;;;11.40;2.70;;;21.80;99.90;;;;;;5070650;28;20045;-72
2022/06/15 07:18:36;;;;;;;5.43;2.10;;;21.80;99.90;;;;;;5053136;28;20102;-72
2022/06/15 07:21:04;;;;;;;14.90;3.47;;;21.80;99.40;;;;;;5055701;28;20098;-71
2022/06/15 07:23:33;;;;;;;9.73;2.78;;;21.90;99.40;;;;;;5056805;28;20067;-72
2022/06/15 07:26:04;;;;;;;7.70;2.17;;;22.00;99.20;;;;;;5044007;28;20404;-72
2022/06/15 07:28:32;;;;;;;15.45;3.70;;;22.10;98.90;;;;;;5054198;28;20067;-73
2022/06/15 07:30:59;;;;;;;7.85;2.20;;;22.20;98.90;;;;;;5055408;28;20106;-72
2022/06/15 07:33:25;;;;;;;10.82;2.53;;;22.10;98.20;;;;;;5073877;28;20040;-72
2022/06/15 07:35:52;;;;;;;3.50;1.92;;;22.20;98.30;;;;;;5054710;28;20049;-72
2022/06/15 07:38:20;;;;;;;5.15;2.17;;;22.40;98.50;;;;;;5075030;28;20178;-73
2022/06/15 07:40:48;;;;;;;15.48;3.42;;;22.50;98.40;;;;;;5055566;28;20048;-73
2022/06/15 07:43:15;;;;;;;13.82;2.95;;;22.70;98.10;;;;;;5056194;28;20071;-72
2022/06/15 07:45:42;;;;;;;13.07;2.85;;;22.70;97.90;;;;;;5055907;28;20056;-72
2022/06/15 07:50:53;;;;;;;17.17;3.45;;;22.70;97.40;;;;;;5054251;28;20131;-73
2022/06/15 07:53:21;;;;;;;12.32;2.10;;;22.70;97.20;;;;;;5075233;28;20048;-72
2022/06/15 07:55:52;;;;;;;23.45;4.35;;;22.80;97.10;;;;;;5040034;28;20053;-73
2022/06/15 07:58:19;;;;;;;4.65;2.00;;;22.90;97.20;;;;;;5053067;28;20135;-71
2022/06/15 08:00:49;;;;;;;10.48;2.55;;;22.90;97.00;;;;;;5055271;28;20454;-72
2022/06/15 08:03:16;;;;;;;12.05;3.50;;;23.10;96.80;;;;;;5072784;28;20132;-72
2022/06/15 08:05:49;;;;;;;5.03;1.90;;;23.10;96.80;;;;;;5072973;28;20052;-71
2022/06/15 08:08:20;;;;;;;5.95;2.50;;;23.70;95.70;;;;;;5073662;28;20087;-72
2022/06/15 08:10:49;;;;;;;7.38;1.98;;;24.10;95.40;;;;;;5056347;28;20122;-72
2022/06/15 08:13:16;;;;;;;6.60;2.33;;;24.30;94.70;;;;;;5072522;28;20041;-72
2022/06/15 08:15:45;;;;;;;3.90;1.55;;;25.00;94.30;;;;;;5064715;28;20083;-71
2022/06/15 08:18:15;;;;;;;24.83;2.88;;;25.70;93.50;;;;;;5045520;28;20052;-72
2022/06/15 08:20:46;;;;;;;20.52;3.00;;;26.00;92.60;;;;;;5055304;28;20468;-73
2022/06/15 08:23:17;;;;;;;7.78;2.30;;;26.40;90.80;;;;;;5054682;28;20102;-71
2022/06/15 08:25:51;;;;;;;4.35;1.70;;;26.70;90.50;;;;;;5051401;28;20040;-72
2022/06/15 08:28:21;;;;;;;4.53;1.98;;;27.10;85.60;;;;;;5057511;28;20080;-72
2022/06/15 08:30:50;;;;;;;7.30;2.45;;;27.20;85.50;;;;;;5050008;28;20451;-72
2022/06/15 08:33:17;;;;;;;6.10;1.80;;;27.50;85.30;;;;;;5056082;28;20408;-72
2022/06/15 08:35:44;;;;;;;6.60;2.22;;;27.70;82.90;;;;;;5044801;28;20095;-72
2022/06/15 08:38:15;;;;;;;8.02;2.67;;;28.00;80.70;;;;;;5054144;28;20098;-71
2022/06/15 08:40:48;;;;;;;8.50;2.22;;;27.80;80.40;;;;;;5069435;28;20055;-72
2022/06/15 08:43:27;;;;;;;6.78;2.42;;;28.00;81.50;;;;;;5051463;28;20061;-72
2022/06/15 08:45:59;;;;;;;7.82;2.42;;;27.70;81.50;;;;;;5051696;28;20057;-72
2022/06/15 08:48:42;;;;;;;9.18;2.78;;;27.80;81.70;;;;;;5043317;28;20507;-72
2022/06/15 08:51:16;;;;;;;21.75;4.25;;;27.40;80.30;;;;;;5045549;28;20057;-72
2022/06/15 08:53:49;;;;;;;16.13;3.38;;;26.70;81.10;;;;;;5048719;28;20401;-72
2022/06/15 08:56:22;;;;;;;7.65;2.13;;;26.10;82.20;;;;;;5048552;28;20053;-71
2022/06/15 08:58:55;;;;;;;7.53;2.50;;;25.50;83.00;;;;;;5044905;28;20508;-72
2022/06/15 09:01:28;;;;;;;5.15;2.08;;;24.80;83.70;;;;;;5053297;28;20045;-72
2022/06/15 09:04:03;;;;;;;7.15;2.47;;;24.40;84.60;;;;;;5052792;28;20443;-71
2022/06/15 09:06:44;;;;;;;8.13;2.20;;;24.00;85.60;;;;;;5051574;28;20447;-72
2022/06/15 09:09:24;;;;;;;616.17;87.20;;;23.70;86.20;;;;;;5051067;28;20102;-71
2022/06/15 09:15:08;;;;;;;3.38;1.80;;;23.90;87.10;;;;;;5046039;28;20049;-71
2022/06/15 09:17:36;;;;;;;83.85;11.15;;;24.70;83.70;;;;;;5051396;28;20052;-72
2022/06/15 09:20:08;;;;;;;19.27;3.72;;;25.40;84.70;;;;;;5051759;28;20049;-71
2022/06/15 09:22:41;;;;;;;4.57;2.10;;;26.40;85.30;;;;;;5050490;28;20056;-72
2022/06/15 09:25:14;;;;;;;14.02;2.78;;;27.00;83.80;;;;;;5051922;28;20420;-73
2022/06/15 09:27:47;;;;;;;10.77;2.00;;;27.30;83.60;;;;;;5051349;28;20056;-72
2022/06/15 09:30:19;;;;;;;4.97;1.92;;;27.00;81.10;;;;;;5051453;28;20425;-73
2022/06/15 09:32:52;;;;;;;6.85;2.47;;;26.80;81.40;;;;;;5051638;28;20095;-72
2022/06/15 09:35:28;;;;;;;8.07;2.05;;;26.40;81.80;;;;;;5049206;28;20061;-72
2022/06/15 09:37:58;;;;;;;4.93;2.08;;;26.10;81.90;;;;;;5047084;28;20056;-72
2022/06/15 09:40:43;;;;;;;5.75;2.10;;;26.50;82.90;;;;;;5048957;28;20103;-73
2022/06/15 09:43:25;;;;;;;10.02;2.28;;;26.90;80.80;;;;;;5064745;28;20455;-72
2022/06/15 09:46:02;;;;;;;5.68;1.98;;;27.10;80.80;;;;;;5070956;28;20568;-72
2022/06/15 09:48:38;;;;;;;3.88;1.70;;;27.30;81.00;;;;;;5051951;28;20530;-71
2022/06/15 09:51:12;;;;;;;4.90;1.85;;;27.40;79.60;;;;;;5040801;28;20053;-72
2022/06/15 09:53:45;;;;;;;6.25;2.38;;;27.70;79.70;;;;;;5045231;28;20044;-72
2022/06/15 09:56:14;;;;;;;9.23;2.03;;;28.30;78.10;;;;;;5048120;28;20562;-72
2022/06/15 09:58:45;;;;;;;5.28;1.90;;;28.70;77.60;;;;;;5063963;28;20063;-73
2022/06/15 10:01:15;;;;;;;6.10;1.55;;;29.00;76.90;;;;;;5052674;28;20079;-72
2022/06/15 10:03:47;;;;;;;5.82;1.85;;;29.30;75.20;;;;;;5052889;28;20048;-72
2022/06/15 10:06:22;;;;;;;5.72;1.88;;;29.70;75.70;;;;;;5069576;28;20179;-71
2022/06/15 10:08:49;;;;;;;5.72;1.80;;;30.00;74.00;;;;;;5050032;28;20052;-72
2022/06/15 10:11:22;;;;;;;9.63;2.30;;;30.20;72.60;;;;;;5069420;28;20088;-72
2022/06/15 10:13:49;;;;;;;8.73;2.00;;;30.20;71.50;;;;;;5052566;28;20053;-72
2022/06/15 10:16:27;;;;;;;4.15;1.65;;;30.10;71.40;;;;;;5051846;28;20059;-72
2022/06/15 10:18:55;;;;;;;6.97;1.85;;;30.40;71.30;;;;;;5052666;28;20063;-72
2022/06/15 10:21:25;;;;;;;3.95;1.67;;;30.30;71.30;;;;;;5070389;28;20457;-73
2022/06/15 10:24:00;;;;;;;2.95;1.45;;;30.30;69.70;;;;;;5046266;28;20198;-72
2022/06/15 10:26:31;;;;;;;7.40;1.73;;;30.40;68.60;;;;;;5070417;28;20098;-72
2022/06/15 10:29:00;;;;;;;4.38;1.40;;;30.30;69.50;;;;;;5070894;28;20408;-72
2022/06/15 10:31:32;;;;;;;4.55;1.50;;;30.00;68.80;;;;;;5070562;28;20075;-71
2022/06/15 10:34:17;;;;;;;7.57;2.13;;;29.70;70.00;;;;;;5062483;28;20350;-71
2022/06/15 10:36:44;;;;;;;5.80;1.75;;;29.20;70.20;;;;;;5027796;28;20057;-74
2022/06/15 10:39:23;;;;;;;3.65;1.38;;;28.50;71.10;;;;;;5066793;28;20048;-73
2022/06/15 10:41:50;;;;;;;4.78;1.50;;;28.00;70.90;;;;;;5053171;28;20411;-73
2022/06/15 10:44:28;;;;;;;7.13;1.98;;;27.70;71.40;;;;;;5052038;28;20045;-72
2022/06/15 10:47:00;;;;;;;5.75;1.90;;;27.20;73.10;;;;;;5051042;28;20052;-71
2022/06/15 10:49:31;;;;;;;4.43;1.73;;;26.80;71.90;;;;;;5070540;28;20079;-71
2022/06/15 10:51:58;;;;;;;2.72;1.25;;;26.50;72.30;;;;;;5069382;28;20462;-72
2022/06/15 10:54:33;;;;;;;3.50;1.70;;;26.40;72.10;;;;;;5082220;28;20059;-71
2022/06/15 11:03:11;;;;;;;5.28;1.80;;;26.30;74.20;;;;;;5056179;28;20052;-72
2022/06/15 11:05:39;;;;;;;5.22;1.88;;;26.30;73.00;;;;;;5055553;28;20048;-72
2022/06/15 11:08:12;;;;;;;7.30;2.22;;;26.30;73.40;;;;;;5054745;28;20059;-70
2022/06/15 11:10:42;;;;;;;5.82;2.15;;;26.40;73.50;;;;;;5067445;28;20052;-72
2022/06/15 11:13:34;;;;;;;3.13;1.90;;;26.40;73.30;;;;;;5056664;28;20067;-71
2022/06/15 11:19:08;;;;;;;10.30;2.25;;;26.20;74.30;;;;;;5044235;28;20063;-72
2022/06/15 11:21:41;;;;;;;7.15;1.90;;;26.00;74.10;;;;;;5072241;28;20114;-71
2022/06/15 11:24:17;;;;;;;6.68;1.75;;;26.00;73.40;;;;;;5055026;28;20446;-72
2022/06/15 11:26:54;;;;;;;3.85;2.00;;;25.90;73.50;;;;;;5055259;28;20458;-72
2022/06/15 11:29:35;;;;;;;20.02;3.85;;;25.80;72.60;;;;;;5074593;28;20066;-71
2022/06/15 11:32:08;;;;;;;358.88;47.22;;;25.70;73.20;;;;;;5055123;28;20485;-71
2022/06/15 11:34:40;;;;;;;9.40;2.60;;;25.60;74.00;;;;;;5054501;28;20048;-72
2022/06/15 11:37:15;;;;;;;14.32;3.03;;;25.70;72.80;;;;;;5073332;28;20067;-72
2022/06/15 11:39:46;;;;;;;10.98;2.90;;;25.70;73.50;;;;;;5051985;28;20127;-72
2022/06/15 11:42:18;;;;;;;703.92;108.35;;;25.90;73.60;;;;;;5073257;28;20056;-72
2022/06/15 11:44:46;;;;;;;22.00;3.28;;;26.00;74.00;;;;;;5073791;28;20052;-72
2022/06/15 11:47:23;;;;;;;9.45;3.28;;;26.00;73.70;;;;;;5072701;28;20128;-72
2022/06/15 11:50:02;;;;;;;23.48;3.65;;;26.00;73.00;;;;;;5071646;28;20066;-73
2022/06/15 11:52:41;;;;;;;23.30;5.15;;;26.00;75.60;;;;;;5072465;28;20447;-73
2022/06/15 11:55:23;;;;;;;20.08;3.60;;;26.00;74.90;;;;;;5055729;28;20484;-72
2022/06/15 11:58:09;;;;;;;815.72;134.23;;;25.90;75.50;;;;;;5073856;28;20400;-72
2022/06/15 12:00:44;;;;;;;18.17;3.92;;;25.90;75.40;;;;;;5052959;28;20056;-73
2022/06/15 12:03:37;;;;;;;26.55;5.28;;;25.90;75.00;;;;;;5055644;28;21145;-72
2022/06/15 12:06:11;;;;;;;8.10;2.45;;;25.80;74.30;;;;;;5052371;28;20044;-72
2022/06/15 12:08:47;;;;;;;13.52;3.70;;;25.80;74.20;;;;;;5069579;28;20052;-72
2022/06/15 12:14:14;;;;;;;10.57;3.15;;;26.30;75.00;;;;;;5068965;28;20064;-72
2022/06/15 12:16:50;;;;;;;13.63;3.05;;;27.30;73.80;;;;;;5071898;28;20048;-72
2022/06/15 12:19:25;;;;;;;13.95;3.13;;;28.00;73.00;;;;;;5053458;28;21315;-72
2022/06/15 12:21:57;;;;;;;15.98;4.25;;;27.90;71.80;;;;;;5071239;28;20587;-73
2022/06/15 12:24:30;;;;;;;9.27;3.20;;;27.70;72.00;;;;;;5055401;28;20510;-71
2022/06/15 12:27:04;;;;;;;7.93;3.20;;;28.00;70.90;;;;;;5054456;28;20099;-72
2022/06/15 12:29:44;;;;;;;31.30;6.63;;;28.10;70.80;;;;;;5067980;28;20480;-72
2022/06/15 12:32:32;;;;;;;20.58;4.82;;;28.50;68.60;;;;;;5071965;28;20045;-72
2022/06/15 12:35:26;;;;;;;8.95;3.03;;;28.50;68.40;;;;;;5053170;28;20054;-71
2022/06/15 12:38:03;;;;;;;26.35;4.25;;;28.80;70.00;;;;;;5055860;28;20061;-73
2022/06/15 12:40:34;;;;;;;9.00;2.58;;;29.20;69.00;;;;;;5072053;28;20496;-72
2022/06/15 12:43:12;;;;;;;7.70;2.72;;;29.90;68.20;;;;;;5068118;28;20071;-71
2022/06/15 12:45:44;;;;;;;56.10;10.55;;;30.20;67.00;;;;;;5052354;28;20051;-72
2022/06/15 12:48:21;;;;;;;19.73;5.03;;;30.00;67.30;;;;;;5055406;28;20052;-72
2022/06/15 12:50:54;;;;;;;77.60;11.35;;;30.00;66.40;;;;;;5053427;28;20562;-72
2022/06/15 12:53:33;;;;;;;112.75;17.23;;;30.10;66.20;;;;;;5053331;28;20504;-72
2022/06/15 12:56:12;;;;;;;236.02;38.15;;;29.90;66.10;;;;;;5072102;28;20560;-72
2022/06/15 12:58:50;;;;;;;218.40;37.85;;;30.10;66.60;;;;;;5071950;28;20063;-72
2022/06/15 13:01:23;;;;;;;147.15;21.85;;;30.00;66.30;;;;;;5051373;28;20442;-73
2022/06/15 13:04:06;;;;;;;344.90;53.78;;;30.20;65.60;;;;;;5065591;28;20078;-73
2022/06/15 13:06:35;;;;;;;16.25;3.67;;;30.30;65.50;;;;;;5051434;28;20612;-73
2022/06/15 13:09:18;;;;;;;193.73;30.37;;;30.50;65.30;;;;;;5072695;28;20408;-72
2022/06/15 13:11:54;;;;;;;28.48;5.40;;;30.40;65.30;;;;;;5051640;28;20828;-73
2022/06/15 13:14:24;;;;;;;68.32;12.23;;;30.10;64.70;;;;;;5052076;28;20052;-73
2022/06/15 13:17:05;;;;;;;33.90;6.75;;;30.10;64.50;;;;;;5051999;28;20053;-73
2022/06/15 13:19:37;;;;;;;43.95;8.43;;;30.60;65.70;;;;;;5054027;28;20052;-73
2022/06/15 13:22:22;;;;;;;44.22;7.72;;;30.60;64.40;;;;;;5070838;28;20056;-73